Time;durP1;ratioP1;P1;durP2;ratioP2;P2;SDS_P1;SDS_P2;PMS_P1;PMS_P2;Temp;Humidity;BMP_temperature;BMP_pressure;BME280_temperature;BME280_humidity;BME280_pressure;Samples;Min_cycle;Max_cycle;Signal;HPM_P1;HPM_P2
2021/03/25 00:01:59;;;;;;;;;;;12.50;70.30;;;;;;4392246;32;20488;-77
2021/03/25 00:04:31;;;;;;;;;;;12.50;70.40;;;;;;4377828;32;42775;-77
2021/03/25 00:07:04;;;;;;;;;;;12.50;70.30;;;;;;4392297;32;20047;-77
2021/03/25 00:09:43;;;;;;;;;;;12.50;70.20;;;;;;4392286;32;20000;-77
2021/03/25 00:12:21;;;;;;;;;;;12.50;70.30;;;;;;4377704;32;44670;-77
2021/03/25 00:14:53;;;;;;;;;;;12.40;70.10;;;;;;4377925;32;27471;-77
2021/03/25 00:17:32;;;;;;;;;;;12.40;70.90;;;;;;4377577;32;43651;-77
2021/03/25 00:19:59;;;;;;;;;;;12.40;70.20;;;;;;4391281;32;43621;-77
2021/03/25 00:22:39;;;;;;;;;;;12.30;70.20;;;;;;4379609;32;20008;-77
2021/03/25 00:25:12;;;;;;;;;;;12.30;70.20;;;;;;4391524;32;33287;-77
2021/03/25 00:27:47;;;;;;;;;;;12.30;70.40;;;;;;4378806;32;20068;-77
2021/03/25 00:30:23;;;;;;;;;;;12.30;70.30;;;;;;4378992;32;20044;-77
2021/03/25 00:32:55;;;;;;;;;;;12.20;70.30;;;;;;4364580;32;44460;-78
2021/03/25 00:35:29;;;;;;;;;;;12.30;70.30;;;;;;4376927;32;46991;-77
2021/03/25 00:38:04;;;;;;;;;;;12.20;70.30;;;;;;4377746;32;40710;-77
2021/03/25 00:40:45;;;;;;;;;;;12.20;70.30;;;;;;4391197;32;32250;-77
2021/03/25 00:43:20;;;;;;;;;;;12.20;70.30;;;;;;4377335;32;39961;-77
2021/03/25 00:45:50;;;;;;;;;;;12.20;70.50;;;;;;4378112;32;20075;-77
2021/03/25 00:48:28;;;;;;;;;;;12.10;70.60;;;;;;4377557;32;44194;-78
2021/03/25 00:51:00;;;;;;;;;;;12.10;70.90;;;;;;4364139;32;46490;-77
2021/03/25 00:53:37;;;;;;;;;;;12.00;70.90;;;;;;4376516;32;44579;-78
2021/03/25 00:56:11;;;;;;;;;;;12.00;70.90;;;;;;4378265;32;20016;-77
2021/03/25 00:58:46;;;;;;;;;;;12.00;71.00;;;;;;4390607;32;42068;-77
2021/03/25 01:01:21;;;;;;;;;;;12.00;71.00;;;;;;4377814;32;20386;-77
2021/03/25 01:03:54;;;;;;;;;;;12.00;71.00;;;;;;4390487;32;43881;-77
2021/03/25 01:06:29;;;;;;;;;;;12.00;70.90;;;;;;4365192;32;20344;-77
2021/03/25 01:09:07;;;;;;;;;;;12.00;71.00;;;;;;4364880;32;32434;-77
2021/03/25 01:11:49;;;;;;;;;;;12.00;70.90;;;;;;4391704;32;20009;-77
2021/03/25 01:14:24;;;;;;;;;;;12.00;70.80;;;;;;4377780;32;20506;-77
2021/03/25 01:17:01;;;;;;;;;;;12.00;71.00;;;;;;4377017;32;31599;-77
2021/03/25 01:19:34;;;;;;;;;;;11.90;71.00;;;;;;4365085;32;19997;-77
2021/03/25 01:22:07;;;;;;;;;;;11.90;71.10;;;;;;4378058;32;20008;-77
2021/03/25 01:24:44;;;;;;;;;;;11.80;71.00;;;;;;4376708;32;33555;-77
2021/03/25 01:27:21;;;;;;;;;;;11.80;71.10;;;;;;4376926;32;43142;-77
2021/03/25 01:29:53;;;;;;;;;;;11.80;71.10;;;;;;4365126;32;20469;-77
2021/03/25 01:32:26;;;;;;;;;;;11.80;71.10;;;;;;4378142;32;20487;-77
2021/03/25 01:35:00;;;;;;;;;;;11.70;71.20;;;;;;4365652;32;20067;-77
2021/03/25 01:37:32;;;;;;;;;;;11.70;71.20;;;;;;4377901;32;20008;-77
2021/03/25 01:40:07;;;;;;;;;;;11.70;71.20;;;;;;4363895;32;45371;-77
2021/03/25 01:42:50;;;;;;;;;;;11.70;71.30;;;;;;4377543;32;20374;-77
2021/03/25 01:45:28;;;;;;;;;;;11.70;71.30;;;;;;4391419;32;20015;-77
2021/03/25 01:48:04;;;;;;;;;;;11.70;71.50;;;;;;4377943;32;20356;-77
2021/03/25 01:50:41;;;;;;;;;;;11.60;71.50;;;;;;4391281;32;20008;-77
2021/03/25 01:53:50;;;;;;;;;;;11.50;71.80;;;;;;4379034;32;20008;-77
2021/03/25 01:56:37;;;;;;;;;;;11.50;72.00;;;;;;4363407;32;20005;-78
2021/03/25 01:59:25;;;;;;;;;;;11.40;72.30;;;;;;4381160;32;20083;-77
2021/03/25 02:02:12;;;;;;;;;;;11.30;72.50;;;;;;4380467;32;20472;-77
2021/03/25 02:05:12;;;;;;;;;;;11.30;72.80;;;;;;4367668;32;19997;-77
2021/03/25 02:08:01;;;;;;;;;;;11.20;73.10;;;;;;4380751;32;20017;-77
2021/03/25 02:10:59;;;;;;;;;;;11.10;73.30;;;;;;4394443;32;20067;-77
2021/03/25 02:13:42;;;;;;;;;;;11.10;73.40;;;;;;4380555;32;20014;-77
2021/03/25 02:16:26;;;;;;;;;;;11.10;73.60;;;;;;4381610;32;20512;-77
2021/03/25 02:19:09;;;;;;;;;;;11.00;73.70;;;;;;4394121;32;20071;-77
2021/03/25 02:21:54;;;;;;;;;;;11.00;73.90;;;;;;4367868;32;20424;-77
2021/03/25 02:24:34;;;;;;;;;;;11.00;74.00;;;;;;4366681;32;39722;-77
2021/03/25 02:27:19;;;;;;;;;;;11.00;74.20;;;;;;4379194;32;39987;-77
2021/03/25 02:29:55;;;;;;;;;;;10.90;74.20;;;;;;4367153;32;37546;-77
2021/03/25 02:32:38;;;;;;;;;;;10.90;74.20;;;;;;4380387;32;20000;-77
2021/03/25 02:35:15;;;;;;;;;;;10.90;74.10;;;;;;4380077;32;19996;-77
2021/03/25 02:37:44;;;;;;;;;;;10.90;74.20;;;;;;4378917;32;43945;-77
2021/03/25 02:40:16;;;;;;;;;;;10.90;74.30;;;;;;4366574;32;37424;-77
2021/03/25 02:42:55;;;;;;;;;;;10.80;74.20;;;;;;4393468;32;20054;-77
2021/03/25 02:45:37;;;;;;;;;;;10.90;74.20;;;;;;4380318;32;20008;-77
2021/03/25 02:48:19;;;;;;;;;;;10.90;74.00;;;;;;4379970;32;20075;-77
2021/03/25 02:50:57;;;;;;;;;;;10.90;74.00;;;;;;4380390;32;20008;-77
2021/03/25 02:53:46;;;;;;;;;;;10.90;74.00;;;;;;4379582;32;19992;-77
2021/03/25 02:56:28;;;;;;;;;;;10.90;74.10;;;;;;4392178;32;43780;-77
2021/03/25 02:59:10;;;;;;;;;;;10.90;74.10;;;;;;4393087;32;20022;-77
2021/03/25 03:01:42;;;;;;;;;;;10.90;74.10;;;;;;4366967;32;20069;-77
2021/03/25 03:04:21;;;;;;;;;;;10.90;74.10;;;;;;4379247;32;19996;-77
2021/03/25 03:06:54;;;;;;;;;;;10.80;74.10;;;;;;4379884;32;20012;-77
2021/03/25 03:09:35;;;;;;;;;;;10.80;74.30;;;;;;4379835;32;20519;-77
2021/03/25 03:12:12;;;;;;;;;;;10.80;74.30;;;;;;4379666;32;20007;-77
2021/03/25 03:14:48;;;;;;;;;;;10.80;74.30;;;;;;4367205;32;20448;-77
2021/03/25 03:17:27;;;;;;;;;;;10.80;74.30;;;;;;4367179;32;20052;-77
2021/03/25 03:20:18;;;;;;;;;;;10.90;74.40;;;;;;4393239;32;20102;-76
2021/03/25 03:22:55;;;;;;;;;;;10.90;74.40;;;;;;4379781;32;20022;-77
2021/03/25 03:25:33;;;;;;;;;;;10.80;74.40;;;;;;4379245;32;20019;-77
2021/03/25 03:28:20;;;;;;;;;;;10.70;74.50;;;;;;4379421;32;20047;-77
2021/03/25 03:31:09;;;;;;;;;;;10.70;74.70;;;;;;4379817;32;20059;-76
2021/03/25 03:34:04;;;;;;;;;;;10.70;74.80;;;;;;4379766;32;20026;-77
2021/03/25 03:36:42;;;;;;;;;;;10.60;75.00;;;;;;4378742;32;31647;-77
2021/03/25 03:39:16;;;;;;;;;;;10.60;75.20;;;;;;4380231;32;19996;-77
2021/03/25 03:41:51;;;;;;;;;;;10.60;75.20;;;;;;4378292;32;43421;-77
2021/03/25 03:44:25;;;;;;;;;;;10.50;75.20;;;;;;4391843;32;33695;-77
2021/03/25 03:46:52;;;;;;;;;;;10.50;75.40;;;;;;4378438;32;44309;-77
2021/03/25 03:49:33;;;;;;;;;;;10.50;75.70;;;;;;4379191;32;20012;-77
2021/03/25 03:52:07;;;;;;;;;;;10.40;75.80;;;;;;4378714;32;20059;-77
2021/03/25 03:54:46;;;;;;;;;;;10.30;76.10;;;;;;4378894;32;26747;-76
2021/03/25 03:57:36;;;;;;;;;;;10.30;76.20;;;;;;4378678;32;20431;-77
2021/03/25 04:00:16;;;;;;;;;;;10.30;76.40;;;;;;4366053;32;23438;-77
2021/03/25 04:02:52;;;;;;;;;;;10.40;76.40;;;;;;4377282;32;44717;-77
2021/03/25 04:05:30;;;;;;;;;;;10.30;76.20;;;;;;4378792;32;20055;-77
2021/03/25 04:08:11;;;;;;;;;;;10.40;76.30;;;;;;4379013;32;20023;-77
2021/03/25 04:11:02;;;;;;;;;;;10.40;76.30;;;;;;4366470;32;20099;-77
2021/03/25 04:14:02;;;;;;;;;;;10.40;76.10;;;;;;4366485;32;20001;-77
2021/03/25 04:16:32;;;;;;;;;;;10.50;76.10;;;;;;4317029;33;36061;-77
2021/03/25 04:19:02;;;;;;;;;;;10.40;75.90;;;;;;4339625;32;40504;-77
2021/03/25 04:21:54;;;;;;;;;;;10.40;76.10;;;;;;4379161;32;20012;-77
2021/03/25 04:24:30;;;;;;;;;;;10.30;76.20;;;;;;4378341;32;20450;-77
2021/03/25 04:27:06;;;;;;;;;;;10.30;76.40;;;;;;4366294;32;20000;-77
2021/03/25 04:30:02;;;;;;;;;;;10.40;76.50;;;;;;4378535;32;20064;-77
2021/03/25 04:32:43;;;;;;;;;;;10.40;77.20;;;;;;4373870;32;20068;-77
2021/03/25 04:35:31;;;;;;;;;;;10.40;76.30;;;;;;4392069;32;20389;-77
2021/03/25 04:38:06;;;;;;;;;;;10.40;76.30;;;;;;4364450;32;45051;-77
2021/03/25 04:40:38;;;;;;;;;;;10.50;76.20;;;;;;4376820;32;37751;-77
2021/03/25 04:43:10;;;;;;;;;;;10.50;76.20;;;;;;4390870;32;43314;-77
2021/03/25 04:45:56;;;;;;;;;;;10.40;76.20;;;;;;4378223;32;20443;-76
2021/03/25 04:48:39;;;;;;;;;;;10.40;76.30;;;;;;4377812;32;20435;-77
2021/03/25 04:51:15;;;;;;;;;;;10.40;76.40;;;;;;4378525;32;20402;-77
2021/03/25 04:53:51;;;;;;;;;;;10.40;76.30;;;;;;4377087;32;43312;-77
2021/03/25 04:56:23;;;;;;;;;;;10.40;76.30;;;;;;4377029;32;44649;-77
2021/03/25 04:59:08;;;;;;;;;;;10.40;76.40;;;;;;4378226;32;20020;-77
2021/03/25 05:01:39;;;;;;;;;;;10.40;76.50;;;;;;4390273;32;44585;-77
2021/03/25 05:04:17;;;;;;;;;;;10.40;76.50;;;;;;4378386;32;20009;-77
2021/03/25 05:06:54;;;;;;;;;;;10.40;76.50;;;;;;4390708;32;44237;-77
2021/03/25 05:09:38;;;;;;;;;;;10.40;76.50;;;;;;4378056;32;20049;-77
2021/03/25 05:12:12;;;;;;;;;;;10.40;76.40;;;;;;4365542;32;20014;-77
2021/03/25 05:14:50;;;;;;;;;;;10.40;76.30;;;;;;4391709;32;20060;-77
2021/03/25 05:17:22;;;;;;;;;;;10.40;76.50;;;;;;4390321;32;44668;-77
2021/03/25 05:19:54;;;;;;;;;;;10.30;76.60;;;;;;4391682;32;20014;-77
2021/03/25 05:22:51;;;;;;;;;;;10.30;76.80;;;;;;4365586;32;20030;-77
2021/03/25 05:25:44;;;;;;;;;;;10.30;76.90;;;;;;4346749;32;25109;-77
2021/03/25 05:28:30;;;;;;;;;;;10.30;77.80;;;;;;4374241;32;20000;-77
2021/03/25 05:31:07;;;;;;;;;;;10.30;77.20;;;;;;4365450;32;20008;-77
2021/03/25 05:33:37;;;;;;;;;;;10.30;77.20;;;;;;4378183;32;20026;-77
2021/03/25 05:36:16;;;;;;;;;;;10.30;77.10;;;;;;4377963;32;20068;-77
2021/03/25 05:38:54;;;;;;;;;;;10.30;77.10;;;;;;4378368;32;20008;-77
2021/03/25 05:41:32;;;;;;;;;;;10.30;77.20;;;;;;4377114;32;20038;-77
2021/03/25 05:44:11;;;;;;;;;;;10.30;77.30;;;;;;4365109;32;20000;-77
2021/03/25 05:46:47;;;;;;;;;;;10.30;77.40;;;;;;4377327;32;20119;-77
2021/03/25 05:49:36;;;;;;;;;;;10.30;77.50;;;;;;4377648;32;20054;-77
2021/03/25 05:52:14;;;;;;;;;;;10.30;77.40;;;;;;4391251;32;20018;-76
2021/03/25 05:54:49;;;;;;;;;;;10.30;77.60;;;;;;4365436;32;20004;-77
2021/03/25 05:57:29;;;;;;;;;;;10.30;77.60;;;;;;4391334;32;20000;-76
2021/03/25 06:00:13;;;;;;;;;;;10.30;77.70;;;;;;4377782;32;20057;-77
2021/03/25 06:02:51;;;;;;;;;;;10.30;77.90;;;;;;4377934;32;20035;-76
2021/03/25 06:05:35;;;;;;;;;;;10.30;78.00;;;;;;4377810;32;20031;-77
2021/03/25 06:08:29;;;;;;;;;;;10.30;78.10;;;;;;4365264;32;20019;-76
2021/03/25 06:11:13;;;;;;;;;;;10.30;78.30;;;;;;4377657;32;20064;-77
2021/03/25 06:14:01;;;;;;;;;;;10.20;78.30;;;;;;4391528;32;20014;-77
2021/03/25 06:16:45;;;;;;;;;;;10.20;78.50;;;;;;4377694;32;20053;-77
2021/03/25 06:19:34;;;;;;;;;;;10.20;78.50;;;;;;4390337;32;26025;-77
2021/03/25 06:22:16;;;;;;;;;;;10.20;78.70;;;;;;4390563;32;27485;-77
2021/03/25 06:24:59;;;;;;;;;;;10.30;78.70;;;;;;4391138;32;20039;-77
2021/03/25 06:27:38;;;;;;;;;;;10.30;79.50;;;;;;4377404;32;20405;-77
2021/03/25 06:30:09;;;;;;;;;;;10.30;78.70;;;;;;4376931;32;20016;-77
2021/03/25 06:32:54;;;;;;;;;;;10.30;78.90;;;;;;4389354;32;40816;-77
2021/03/25 06:35:41;;;;;;;;;;;10.20;78.90;;;;;;4364055;32;29201;-77
2021/03/25 06:38:17;;;;;;;;;;;10.20;80.00;;;;;;4363216;32;43962;-77
2021/03/25 06:40:56;;;;;;;;;;;10.20;79.30;;;;;;4366241;32;34470;-77
2021/03/25 06:43:32;;;;;;;;;;;10.10;79.50;;;;;;4366215;32;45464;-76
2021/03/25 06:46:23;;;;;;;;;;;10.10;79.60;;;;;;4380415;32;20048;-77
2021/03/25 06:48:58;;;;;;;;;;;10.10;79.70;;;;;;4366772;32;20011;-77
2021/03/25 06:51:34;;;;;;;;;;;10.10;79.90;;;;;;4380267;32;20004;-77
2021/03/25 06:54:16;;;;;;;;;;;10.10;80.00;;;;;;4393297;32;20060;-77
2021/03/25 06:56:49;;;;;;;;;;;10.10;80.00;;;;;;4380113;32;20063;-77
2021/03/25 06:59:16;;;;;;;;;;;10.10;80.20;;;;;;4393511;32;20397;-77
2021/03/25 07:01:47;;;;;;;;;;;10.10;80.30;;;;;;4379263;32;20056;-77
2021/03/25 07:04:22;;;;;;;;;;;10.10;80.20;;;;;;4393488;32;20018;-77
2021/03/25 07:07:10;;;;;;;;;;;10.10;80.50;;;;;;4393482;32;20397;-77
2021/03/25 07:09:48;;;;;;;;;;;10.10;80.40;;;;;;4393452;32;20063;-77
2021/03/25 07:12:41;;;;;;;;;;;10.10;80.70;;;;;;4393509;32;20071;-77
2021/03/25 07:15:20;;;;;;;;;;;10.20;80.80;;;;;;4392118;32;43343;-77
2021/03/25 07:17:56;;;;;;;;;;;10.20;81.00;;;;;;4380183;32;20016;-77
2021/03/25 07:20:35;;;;;;;;;;;10.20;81.20;;;;;;4367245;32;20022;-77
2021/03/25 07:23:12;;;;;;;;;;;10.20;81.40;;;;;;4392788;32;20022;-77
2021/03/25 07:25:46;;;;;;;;;;;10.10;81.20;;;;;;4366281;32;33648;-77
2021/03/25 07:28:23;;;;;;;;;;;10.10;81.50;;;;;;4366920;32;21158;-77
2021/03/25 07:31:01;;;;;;;;;;;10.10;81.50;;;;;;4379518;32;20004;-77
2021/03/25 07:33:39;;;;;;;;;;;10.10;81.80;;;;;;4366144;32;39992;-77
2021/03/25 07:36:15;;;;;;;;;;;10.20;81.80;;;;;;4377975;32;45391;-77
2021/03/25 07:38:48;;;;;;;;;;;10.20;81.90;;;;;;4378778;32;44669;-77
2021/03/25 07:41:29;;;;;;;;;;;10.10;81.80;;;;;;4391752;32;25037;-77
2021/03/25 07:44:02;;;;;;;;;;;10.20;82.00;;;;;;4379416;32;20020;-77
2021/03/25 07:46:52;;;;;;;;;;;10.20;82.20;;;;;;4379636;32;20007;-77
2021/03/25 07:49:24;;;;;;;;;;;10.10;82.10;;;;;;4378185;32;43377;-77
2021/03/25 07:51:56;;;;;;;;;;;10.20;82.50;;;;;;4390315;32;45263;-77
2021/03/25 07:54:25;;;;;;;;;;;10.20;82.40;;;;;;4392354;32;22642;-77
2021/03/25 07:57:12;;;;;;;;;;;10.10;82.50;;;;;;4392532;32;20067;-77
2021/03/25 07:59:44;;;;;;;;;;;10.10;82.70;;;;;;4377738;32;43675;-77
2021/03/25 08:02:23;;;;;;;;;;;10.10;82.80;;;;;;4392121;32;20016;-77
2021/03/25 08:05:05;;;;;;;;;;;10.10;82.80;;;;;;4378618;32;20018;-77
2021/03/25 08:07:40;;;;;;;;;;;10.10;82.90;;;;;;4366482;32;19993;-77
2021/03/25 08:10:48;;;;;;;;;;;10.10;83.10;;;;;;4378876;32;20499;-77
2021/03/25 08:13:28;;;;;;;;;;;10.10;83.10;;;;;;4347029;32;32836;-77
2021/03/25 08:16:15;;;;;;;;;;;10.10;83.20;;;;;;4378808;32;20000;-77
2021/03/25 08:18:54;;;;;;;;;;;10.10;83.30;;;;;;4392398;32;20018;-77
2021/03/25 08:21:41;;;;;;;;;;;10.10;83.40;;;;;;4378774;32;20004;-77
2021/03/25 08:24:38;;;;;;;;;;;10.20;83.50;;;;;;4392253;32;20356;-77
2021/03/25 08:27:13;;;;;;;;;;;10.20;83.50;;;;;;4366204;32;20000;-77
2021/03/25 08:29:55;;;;;;;;;;;10.10;83.70;;;;;;4366346;32;20004;-77
2021/03/25 08:33:00;;;;;;;;;;;10.20;83.80;;;;;;4366452;32;20016;-77
2021/03/25 08:35:42;;;;;;;;;;;10.20;84.00;;;;;;4330634;33;20405;-77
2021/03/25 08:38:27;;;;;;;;;;;10.20;83.90;;;;;;4348376;32;20022;-77
2021/03/25 08:41:06;;;;;;;;;;;10.20;84.00;;;;;;4391883;32;20075;-77
2021/03/25 08:43:56;;;;;;;;;;;10.30;84.20;;;;;;4378057;32;20060;-77
2021/03/25 08:46:52;;;;;;;;;;;10.30;84.10;;;;;;4366340;32;20052;-77
2021/03/25 08:49:45;;;;;;;;;;;10.30;84.10;;;;;;4378248;32;20039;-76
2021/03/25 08:52:23;;;;;;;;;;;10.30;84.30;;;;;;4378374;32;20027;-77
2021/03/25 08:55:02;;;;;;;;;;;10.40;84.30;;;;;;4378102;32;20008;-77
2021/03/25 08:57:38;;;;;;;;;;;10.40;84.30;;;;;;4391135;32;22924;-77
2021/03/25 09:00:14;;;;;;;;;;;10.40;84.30;;;;;;4378170;32;27556;-77
2021/03/25 09:02:51;;;;;;;;;;;10.50;84.30;;;;;;4376905;32;30570;-77
2021/03/25 09:05:26;;;;;;;;;;;10.50;84.50;;;;;;4365040;32;20944;-77
2021/03/25 09:07:54;;;;;;;;;;;10.50;84.50;;;;;;4376046;32;41163;-77
2021/03/25 09:10:24;;;;;;;;;;;10.50;84.40;;;;;;4364391;32;45585;-77
2021/03/25 09:13:04;;;;;;;;;;;10.50;84.50;;;;;;4378301;32;20065;-77
2021/03/25 09:15:39;;;;;;;;;;;10.60;84.50;;;;;;4378220;32;20012;-77
2021/03/25 09:18:16;;;;;;;;;;;10.60;84.50;;;;;;4378122;32;20018;-77
2021/03/25 09:20:49;;;;;;;;;;;10.60;84.60;;;;;;4378274;32;20059;-77
2021/03/25 09:23:46;;;;;;;;;;;10.60;84.60;;;;;;4391465;32;20099;-77
2021/03/25 09:26:18;;;;;;;;;;;10.60;84.70;;;;;;4367474;32;43148;-77
2021/03/25 09:29:06;;;;;;;;;;;10.60;84.70;;;;;;4390529;32;37002;-77
2021/03/25 09:31:43;;;;;;;;;;;10.60;84.80;;;;;;4376141;32;41730;-77
2021/03/25 09:34:24;;;;;;;;;;;10.60;84.70;;;;;;4377977;32;20004;-77
2021/03/25 09:37:12;;;;;;;;;;;10.60;84.90;;;;;;4391670;32;20008;-77
2021/03/25 09:39:44;;;;;;;;;;;10.60;84.80;;;;;;4364177;32;41889;-77
2021/03/25 09:42:28;;;;;;;;;;;10.70;84.90;;;;;;4364529;32;43899;-77
2021/03/25 09:45:21;;;;;;;;;;;10.70;84.90;;;;;;4390088;32;43670;-77
2021/03/25 09:48:01;;;;;;;;;;;10.70;84.90;;;;;;4389602;32;43162;-76
2021/03/25 09:50:33;;;;;;;;;;;10.70;84.90;;;;;;4390544;32;29998;-77
2021/03/25 09:53:29;;;;;;;;;;;10.70;85.00;;;;;;4376569;32;35950;-77
2021/03/25 09:56:14;;;;;;;;;;;10.70;85.10;;;;;;4377185;32;43584;-77
2021/03/25 09:58:49;;;;;;;;;;;10.80;85.10;;;;;;4377073;32;20026;-77
2021/03/25 10:01:37;;;;;;;;;;;10.80;85.00;;;;;;4377899;32;20089;-77
2021/03/25 10:04:24;;;;;;;;;;;10.80;85.00;;;;;;4391391;32;20018;-77
2021/03/25 10:07:03;;;;;;;;;;;10.80;85.10;;;;;;4377681;32;20020;-77
2021/03/25 10:09:57;;;;;;;;;;;10.80;85.10;;;;;;4365583;32;20038;-77
2021/03/25 10:12:42;;;;;;;;;;;10.80;85.20;;;;;;4363563;32;45641;-77
2021/03/25 10:15:44;;;;;;;;;;;10.90;85.30;;;;;;4378683;32;20083;-77
2021/03/25 10:18:17;;;;;;;;;;;10.90;85.30;;;;;;4331674;33;26491;-77
2021/03/25 10:20:59;;;;;;;;;;;10.90;85.60;;;;;;4372206;32;20051;-77
2021/03/25 10:23:48;;;;;;;;;;;10.90;85.50;;;;;;4368030;32;20060;-77
2021/03/25 10:26:30;;;;;;;;;;;11.00;85.70;;;;;;4380771;32;20008;-77
2021/03/25 10:29:13;;;;;;;;;;;11.00;85.50;;;;;;4394292;32;20012;-77
2021/03/25 10:31:54;;;;;;;;;;;11.00;85.50;;;;;;4393866;32;20012;-77
2021/03/25 10:34:30;;;;;;;;;;;11.00;85.60;;;;;;4366228;32;41962;-77
2021/03/25 10:37:17;;;;;;;;;;;11.10;85.70;;;;;;4366289;32;46175;-77
2021/03/25 10:39:50;;;;;;;;;;;11.10;85.60;;;;;;4368655;32;39955;-77
2021/03/25 10:42:32;;;;;;;;;;;11.20;85.70;;;;;;4393910;32;20030;-77
2021/03/25 10:45:19;;;;;;;;;;;11.20;85.50;;;;;;4393961;32;20004;-77
2021/03/25 10:48:03;;;;;;;;;;;11.20;85.60;;;;;;4393753;32;20022;-77
2021/03/25 10:50:57;;;;;;;;;;;11.20;85.50;;;;;;4382819;32;20008;-77
2021/03/25 10:53:34;;;;;;;;;;;11.20;85.50;;;;;;4379868;32;20419;-77
2021/03/25 10:56:24;;;;;;;;;;;11.20;85.50;;;;;;4378860;32;43683;-77
2021/03/25 10:59:19;;;;;;;;;;;11.20;85.50;;;;;;4384793;32;20008;-77
2021/03/25 11:02:09;;;;;;;;;;;11.20;85.50;;;;;;4393289;32;20039;-77
2021/03/25 11:04:38;;;;;;;;;;;11.20;85.60;;;;;;4378588;32;20435;-76
2021/03/25 11:07:10;;;;;;;;;;;11.30;85.70;;;;;;4392234;32;43416;-77
2021/03/25 11:10:03;;;;;;;;;;;11.30;85.80;;;;;;4392916;32;20028;-77
2021/03/25 11:12:38;;;;;;;;;;;11.30;86.00;;;;;;4378898;32;39506;-77
2021/03/25 11:15:35;;;;;;;;;;;11.30;85.80;;;;;;4393495;32;20134;-77
2021/03/25 11:18:22;;;;;;;;;;;11.30;86.10;;;;;;4366578;32;30349;-77
2021/03/25 11:20:49;;;;;;;;;;;11.30;85.80;;;;;;4392059;32;43658;-77
2021/03/25 11:23:22;;;;;;;;;;;11.30;86.00;;;;;;4392048;32;36678;-77
2021/03/25 11:26:03;;;;;;;;;;;11.30;86.00;;;;;;4378015;32;44502;-77
2021/03/25 11:28:39;;;;;;;;;;;11.30;86.10;;;;;;4393192;32;20043;-77
2021/03/25 11:31:15;;;;;;;;;;;11.30;86.30;;;;;;4366006;32;34462;-77
2021/03/25 11:33:49;;;;;;;;;;;11.30;86.30;;;;;;4393011;32;20073;-77
2021/03/25 11:36:37;;;;;;;;;;;11.30;86.50;;;;;;4366926;32;19993;-77
2021/03/25 11:39:18;;;;;;;;;;;11.40;86.40;;;;;;4366162;32;27787;-77
2021/03/25 11:41:49;;;;;;;;;;;11.40;86.30;;;;;;4391721;32;44716;-77
2021/03/25 11:44:34;;;;;;;;;;;11.40;86.40;;;;;;4392537;32;20004;-77
2021/03/25 11:47:20;;;;;;;;;;;11.40;86.50;;;;;;4377731;32;43767;-77
2021/03/25 11:49:54;;;;;;;;;;;11.40;86.50;;;;;;4392446;32;20021;-77
2021/03/25 11:52:44;;;;;;;;;;;11.40;86.50;;;;;;4366806;32;20026;-77
2021/03/25 11:55:21;;;;;;;;;;;11.50;86.90;;;;;;4379897;32;20012;-77
2021/03/25 11:57:56;;;;;;;;;;;11.50;86.90;;;;;;4392754;32;20412;-77
2021/03/25 12:00:31;;;;;;;;;;;11.50;86.80;;;;;;4366909;32;20004;-77
2021/03/25 12:03:18;;;;;;;;;;;11.60;86.70;;;;;;4391037;32;40003;-77
2021/03/25 12:05:52;;;;;;;;;;;11.60;86.80;;;;;;4382507;32;19996;-77
2021/03/25 12:08:30;;;;;;;;;;;11.70;86.90;;;;;;4379317;32;20056;-77
2021/03/25 12:11:09;;;;;;;;;;;11.70;86.70;;;;;;4378878;32;20016;-77
2021/03/25 12:13:42;;;;;;;;;;;11.70;86.70;;;;;;4378485;32;20400;-77
2021/03/25 12:16:15;;;;;;;;;;;11.70;86.40;;;;;;4392511;32;20079;-77
2021/03/25 12:18:50;;;;;;;;;;;11.70;86.50;;;;;;4391333;32;39705;-77
2021/03/25 12:21:24;;;;;;;;;;;11.70;86.30;;;;;;4365750;32;20045;-77
2021/03/25 12:24:03;;;;;;;;;;;11.70;86.40;;;;;;4392676;32;20008;-77
2021/03/25 12:26:35;;;;;;;;;;;11.70;86.30;;;;;;4377622;32;44568;-77
2021/03/25 12:29:05;;;;;;;;;;;11.80;87.20;;;;;;4391022;32;36276;-77
2021/03/25 12:31:44;;;;;;;;;;;11.80;86.50;;;;;;4379030;32;19997;-77
2021/03/25 12:34:36;;;;;;;;;;;11.70;86.50;;;;;;4378396;32;20008;-77
2021/03/25 12:37:06;;;;;;;;;;;11.70;86.60;;;;;;4365244;32;20006;-77
2021/03/25 12:39:35;;;;;;;;;;;11.70;86.60;;;;;;4390659;32;39994;-77
2021/03/25 12:42:05;;;;;;;;;;;11.70;86.50;;;;;;4377348;32;35466;-77
2021/03/25 12:44:40;;;;;;;;;;;11.70;86.40;;;;;;4377749;32;28264;-78
2021/03/25 12:47:12;;;;;;;;;;;11.70;86.60;;;;;;4378299;32;20047;-77
2021/03/25 12:50:06;;;;;;;;;;;11.80;86.60;;;;;;4381010;32;20068;-77
2021/03/25 12:52:36;;;;;;;;;;;11.80;86.60;;;;;;4365908;32;20000;-77
2021/03/25 12:55:03;;;;;;;;;;;11.80;86.60;;;;;;4390905;32;41938;-77
2021/03/25 12:57:35;;;;;;;;;;;11.80;86.50;;;;;;4376975;32;42378;-77
2021/03/25 13:00:19;;;;;;;;;;;11.90;86.50;;;;;;4377040;32;36854;-77
2021/03/25 13:02:48;;;;;;;;;;;11.90;86.50;;;;;;4387986;32;37288;-77
2021/03/25 13:05:21;;;;;;;;;;;11.90;86.60;;;;;;4390900;32;31131;-77
2021/03/25 13:08:03;;;;;;;;;;;11.90;86.40;;;;;;4365782;32;42767;-77
2021/03/25 13:10:36;;;;;;;;;;;12.00;86.40;;;;;;4390675;32;39041;-77
2021/03/25 13:13:11;;;;;;;;;;;12.00;86.40;;;;;;4377086;32;38468;-77
2021/03/25 13:15:44;;;;;;;;;;;12.00;86.30;;;;;;4390902;32;42896;-77
2021/03/25 13:18:17;;;;;;;;;;;12.00;86.30;;;;;;4390645;32;44103;-77
2021/03/25 13:20:51;;;;;;;;;;;12.00;86.30;;;;;;4365034;32;20054;-77
2021/03/25 13:23:22;;;;;;;;;;;12.10;86.20;;;;;;4376973;32;20008;-77
2021/03/25 13:25:54;;;;;;;;;;;12.10;86.30;;;;;;4364322;32;30059;-77
2021/03/25 13:28:27;;;;;;;;;;;12.00;86.20;;;;;;4365769;32;20011;-78
2021/03/25 13:31:03;;;;;;;;;;;12.00;86.20;;;;;;4364212;32;43935;-77
2021/03/25 13:33:36;;;;;;;;;;;12.00;86.40;;;;;;4376695;32;36076;-77
2021/03/25 13:36:09;;;;;;;;;;;12.00;86.40;;;;;;4390463;32;34977;-77
2021/03/25 13:38:41;;;;;;;;;;;12.00;86.40;;;;;;4376998;32;42797;-77
2021/03/25 13:41:16;;;;;;;;;;;12.00;86.40;;;;;;4377994;32;20039;-77
2021/03/25 13:43:49;;;;;;;;;;;12.00;86.40;;;;;;4390662;32;20623;-77
2021/03/25 13:46:24;;;;;;;;;;;12.00;86.40;;;;;;4390305;32;39541;-77
2021/03/25 13:49:00;;;;;;;;;;;12.00;86.30;;;;;;4376869;32;31201;-77
2021/03/25 13:51:32;;;;;;;;;;;12.00;86.40;;;;;;4367014;32;38767;-77
2021/03/25 13:54:07;;;;;;;;;;;12.00;86.30;;;;;;4380677;32;31534;-77
2021/03/25 13:56:42;;;;;;;;;;;12.00;86.40;;;;;;4379572;32;35887;-77
2021/03/25 13:59:15;;;;;;;;;;;12.00;86.40;;;;;;4379841;32;38438;-78
2021/03/25 14:01:46;;;;;;;;;;;12.00;86.40;;;;;;4380740;32;20027;-77
2021/03/25 14:04:21;;;;;;;;;;;12.10;86.60;;;;;;4380092;32;36518;-77
2021/03/25 14:06:51;;;;;;;;;;;12.10;86.60;;;;;;4367315;32;34844;-76
2021/03/25 14:09:18;;;;;;;;;;;12.10;86.60;;;;;;4367142;32;39378;-79
2021/03/25 14:11:51;;;;;;;;;;;12.10;86.60;;;;;;4379290;32;35799;-81
2021/03/25 14:14:26;;;;;;;;;;;12.10;86.60;;;;;;4368554;32;20005;-81
2021/03/25 14:17:01;;;;;;;;;;;12.10;86.60;;;;;;4380060;32;20020;-81
2021/03/25 14:19:31;;;;;;;;;;;12.10;86.60;;;;;;4380219;32;19996;-81
2021/03/25 14:22:07;;;;;;;;;;;12.10;86.60;;;;;;4380650;32;20011;-81
2021/03/25 14:24:40;;;;;;;;;;;12.10;86.60;;;;;;4392746;32;43659;-81
2021/03/25 14:27:14;;;;;;;;;;;12.10;86.50;;;;;;4392997;32;37739;-81
2021/03/25 14:29:50;;;;;;;;;;;12.10;86.40;;;;;;4379457;32;40897;-81
2021/03/25 14:32:25;;;;;;;;;;;12.10;86.50;;;;;;4393042;32;34588;-81
2021/03/25 14:35:00;;;;;;;;;;;12.10;86.50;;;;;;4393180;32;33782;-80
2021/03/25 14:37:33;;;;;;;;;;;12.10;86.60;;;;;;4379697;32;30577;-81
2021/03/25 14:40:02;;;;;;;;;;;12.10;86.60;;;;;;4379730;32;20071;-81
2021/03/25 14:42:34;;;;;;;;;;;12.00;86.60;;;;;;4379240;32;42229;-81
2021/03/25 14:45:10;;;;;;;;;;;12.00;86.70;;;;;;4380552;32;20014;-81
2021/03/25 14:47:50;;;;;;;;;;;12.00;86.80;;;;;;4380114;32;20000;-81
2021/03/25 14:50:20;;;;;;;;;;;12.00;86.80;;;;;;4392667;32;44608;-81
2021/03/25 14:52:53;;;;;;;;;;;12.00;86.80;;;;;;4393751;32;20075;-81
2021/03/25 14:55:27;;;;;;;;;;;12.00;86.80;;;;;;4379820;32;20115;-81
2021/03/25 14:58:02;;;;;;;;;;;12.00;87.60;;;;;;4380475;32;20353;-81
2021/03/25 15:00:45;;;;;;;;;;;12.00;86.90;;;;;;4379650;32;20059;-81
2021/03/25 15:03:22;;;;;;;;;;;12.00;86.90;;;;;;4378331;32;42056;-81
2021/03/25 15:05:54;;;;;;;;;;;12.00;87.00;;;;;;4379304;32;20068;-80
2021/03/25 15:08:29;;;;;;;;;;;12.00;87.00;;;;;;4393579;32;20086;-81
2021/03/25 15:11:08;;;;;;;;;;;12.00;87.00;;;;;;4393401;32;20015;-81
2021/03/25 15:13:43;;;;;;;;;;;12.00;87.00;;;;;;4365618;32;43366;-81
2021/03/25 15:16:16;;;;;;;;;;;12.00;87.10;;;;;;4393657;32;20428;-81
2021/03/25 15:18:51;;;;;;;;;;;12.00;87.00;;;;;;4366687;32;20001;-81
2021/03/25 15:21:26;;;;;;;;;;;12.10;87.00;;;;;;4392763;32;27040;-81
2021/03/25 15:23:59;;;;;;;;;;;12.10;87.10;;;;;;4379645;32;20014;-81